createdAt,value
2018-08-22T00:00:48.592Z,58.60
2018-08-22T00:06:09.174Z,58.60
2018-08-22T00:11:29.703Z,58.50
2018-08-22T00:16:50.404Z,58.50
2018-08-22T00:22:10.934Z,58.50
2018-08-22T00:27:31.562Z,58.50
2018-08-22T00:32:52.161Z,58.50
2018-08-22T00:38:12.932Z,58.50
2018-08-22T00:43:33.447Z,58.50
2018-08-22T00:48:53.953Z,58.50
2018-08-22T00:54:14.584Z,58.40
2018-08-22T00:59:35.102Z,58.30
2018-08-22T01:04:55.689Z,58.30
2018-08-22T01:10:16.203Z,58.30
2018-08-22T01:15:36.726Z,58.30
2018-08-22T01:20:57.410Z,58.30
2018-08-22T01:26:17.933Z,58.20
2018-08-22T01:31:38.570Z,58.30
2018-08-22T01:36:59.225Z,58.30
2018-08-22T01:42:19.931Z,58.30
2018-08-22T01:47:40.456Z,58.20
2018-08-22T01:53:00.969Z,58.30
2018-08-22T01:58:21.506Z,58.30
2018-08-22T02:03:42.086Z,58.10
2018-08-22T02:09:02.613Z,58.20
2018-08-22T02:14:23.166Z,58.20
2018-08-22T02:19:43.705Z,58.20
2018-08-22T02:25:04.653Z,58.20
2018-08-22T02:30:25.200Z,58.10
2018-08-22T02:35:45.745Z,58.00
2018-08-22T02:41:06.539Z,58.10
2018-08-22T02:46:27.142Z,58.00
2018-08-22T02:51:47.900Z,58.00
2018-08-22T02:57:08.450Z,58.00
2018-08-22T03:02:29.031Z,58.00
2018-08-22T03:07:49.546Z,58.00
2018-08-22T03:13:10.148Z,58.00
2018-08-22T03:18:30.854Z,58.00
2018-08-22T03:23:51.655Z,58.10
2018-08-22T03:29:12.529Z,58.10
2018-08-22T03:34:33.611Z,58.10
2018-08-22T03:39:54.214Z,58.00
2018-08-22T03:45:14.767Z,58.00
2018-08-22T03:50:35.300Z,58.10
2018-08-22T03:55:55.829Z,58.10
2018-08-22T04:01:16.481Z,58.10
2018-08-22T04:06:37.022Z,58.10
2018-08-22T04:11:57.579Z,58.10
2018-08-22T04:17:18.188Z,58.10
2018-08-22T04:22:39.933Z,58.10
2018-08-22T04:28:00.582Z,58.10
2018-08-22T04:33:21.179Z,58.10
2018-08-22T04:38:41.791Z,58.10
2018-08-22T04:44:02.389Z,58.10
2018-08-22T04:49:23.114Z,58.10
2018-08-22T04:54:43.855Z,58.10
2018-08-22T05:00:04.537Z,58.10
2018-08-22T05:05:25.091Z,58.10
2018-08-22T05:10:45.855Z,58.10
2018-08-22T05:16:06.460Z,58.10
2018-08-22T05:21:27.003Z,58.10
2018-08-22T05:26:47.630Z,58.10
2018-08-22T05:32:08.213Z,58.10
2018-08-22T05:37:28.814Z,58.10
2018-08-22T05:42:49.335Z,58.10
2018-08-22T05:48:09.884Z,58.10
2018-08-22T05:53:30.427Z,58.10
2018-08-22T05:58:51.320Z,58.20
2018-08-22T06:04:12.047Z,58.10
2018-08-22T06:09:32.577Z,58.10
2018-08-22T06:14:53.435Z,58.20
2018-08-22T06:20:13.977Z,58.20
2018-08-22T06:25:35.089Z,58.20
2018-08-22T06:30:56.259Z,58.20
2018-08-22T06:36:17.315Z,58.20
2018-08-22T06:41:38.305Z,58.20
2018-08-22T06:46:58.847Z,58.20
2018-08-22T06:52:19.407Z,58.20
2018-08-22T06:57:39.931Z,58.20
2018-08-22T07:03:00.469Z,58.20
2018-08-22T07:08:21.420Z,58.20
2018-08-22T07:13:42.464Z,58.20
2018-08-22T07:19:03.367Z,58.90
2018-08-22T07:24:25.553Z,58.20
2018-08-22T07:29:46.884Z,58.40
2018-08-22T07:35:08.134Z,58.30
2018-08-22T07:40:28.656Z,57.80
2018-08-22T07:45:49.236Z,57.70
2018-08-22T07:51:09.863Z,57.60
2018-08-22T07:56:30.647Z,57.60
2018-08-22T08:01:51.254Z,57.60
2018-08-22T08:07:13.404Z,57.80
2018-08-22T08:12:41.619Z,57.80
2018-08-22T08:18:02.320Z,57.90
2018-08-22T08:23:26.162Z,57.90
2018-08-22T08:28:46.883Z,58.00
2018-08-22T08:34:07.598Z,58.00
2018-08-22T08:39:28.143Z,57.80
2018-08-22T08:44:48.866Z,57.80
2018-08-22T08:50:09.596Z,59.60
2018-08-22T08:55:30.936Z,61.10
2018-08-22T09:00:52.605Z,61.70
2018-08-22T09:06:13.665Z,61.70
2018-08-22T09:11:34.602Z,62.10
2018-08-22T09:16:55.680Z,62.10
2018-08-22T09:22:17.253Z,62.10
2018-08-22T09:27:37.823Z,62.30
2018-08-22T09:32:58.354Z,62.60
2018-08-22T09:38:19.144Z,62.20
2018-08-22T09:43:39.967Z,62.20
2018-08-22T09:49:00.589Z,62.40
2018-08-22T09:54:25.928Z,62.30
2018-08-22T09:59:51.032Z,61.90
2018-08-22T10:05:13.336Z,62.00
2018-08-22T10:10:35.831Z,62.00
2018-08-22T10:15:56.473Z,62.00
2018-08-22T10:21:19.074Z,61.80
2018-08-22T10:26:40.234Z,61.90
2018-08-22T10:32:01.023Z,61.90
2018-08-22T10:37:21.732Z,62.10
2018-08-22T10:42:42.348Z,62.20
2018-08-22T10:48:04.298Z,62.40
2018-08-22T10:53:25.644Z,62.40
2018-08-22T10:58:46.150Z,62.70
2018-08-22T11:04:06.733Z,62.80
2018-08-22T11:09:27.261Z,63.10
2018-08-22T11:14:47.877Z,63.10
2018-08-22T11:20:08.546Z,63.10
2018-08-22T11:25:39.902Z,62.80
2018-08-22T11:31:10.807Z,62.30
2018-08-22T11:36:29.830Z,62.00
2018-08-22T11:41:50.358Z,62.00
2018-08-22T11:47:11.002Z,62.10
2018-08-22T11:52:31.518Z,62.00
2018-08-22T11:57:52.051Z,61.80
2018-08-22T12:03:12.591Z,61.70
2018-08-22T12:08:33.643Z,61.60
2018-08-22T12:13:54.340Z,61.30
2018-08-22T12:19:14.883Z,60.80
2018-08-22T12:24:35.439Z,60.30
2018-08-22T12:29:56.398Z,60.20
2018-08-22T12:35:17.398Z,60.10
2018-08-22T12:40:37.950Z,60.10
2018-08-22T12:45:58.726Z,60.00
2018-08-22T12:51:20.440Z,59.90
2018-08-22T12:56:41.693Z,59.60
2018-08-22T13:02:02.389Z,59.60
2018-08-22T13:07:24.571Z,59.20
2018-08-22T13:12:46.068Z,59.10
2018-08-22T13:18:06.887Z,59.20
2018-08-22T13:23:27.433Z,59.00
2018-08-22T13:28:47.952Z,59.00
2018-08-22T13:34:08.676Z,58.70
2018-08-22T13:39:29.410Z,58.50
2018-08-22T13:44:49.946Z,58.40
2018-08-22T13:50:10.546Z,58.10
2018-08-22T13:55:31.166Z,57.90
2018-08-22T14:00:52.834Z,57.40
2018-08-22T14:06:13.502Z,57.20
2018-08-22T14:11:34.043Z,57.10
2018-08-22T14:16:54.703Z,56.80
2018-08-22T14:22:15.319Z,56.80
2018-08-22T14:27:36.374Z,56.50
2018-08-22T14:32:57.023Z,56.30
2018-08-22T14:38:17.607Z,56.50
2018-08-22T14:43:38.526Z,56.40
2018-08-22T14:48:59.396Z,56.50
2018-08-22T14:54:20.179Z,56.30
2018-08-22T14:59:40.922Z,56.20
2018-08-22T15:05:02.467Z,55.90
2018-08-22T15:10:23.074Z,55.70
2018-08-22T15:15:44.054Z,55.20
2018-08-22T15:21:04.670Z,55.20
2018-08-22T15:26:25.898Z,54.80
2018-08-22T15:31:46.730Z,54.80
2018-08-22T15:37:07.394Z,54.80
2018-08-22T15:42:28.010Z,54.80
2018-08-22T15:47:48.564Z,54.80
2018-08-22T15:53:09.371Z,55.00
2018-08-22T15:58:30.235Z,55.00
2018-08-22T16:03:51.349Z,55.30
2018-08-22T16:09:21.301Z,55.30
2018-08-22T16:14:42.076Z,55.30
2018-08-22T16:20:02.763Z,55.50
2018-08-22T16:25:31.013Z,55.70
2018-08-22T16:30:57.578Z,55.80
2018-08-22T16:36:20.660Z,56.00
2018-08-22T16:41:41.552Z,56.10
2018-08-22T16:47:03.597Z,56.20
2018-08-22T16:52:24.488Z,56.40
2018-08-22T16:57:45.340Z,56.60
2018-08-22T17:03:08.017Z,56.80
2018-08-22T17:08:29.219Z,57.00
2018-08-22T17:13:53.766Z,56.90
2018-08-22T17:19:14.363Z,56.80
2018-08-22T17:24:34.938Z,57.00
2018-08-22T17:29:55.501Z,57.60
2018-08-22T17:35:16.126Z,57.00
2018-08-22T17:40:36.880Z,56.90
2018-08-22T17:45:57.452Z,57.10
2018-08-22T17:51:18.027Z,57.40
2018-08-22T17:56:38.909Z,57.50
2018-08-22T18:02:00.482Z,58.10
2018-08-22T18:07:21.269Z,58.50
2018-08-22T18:12:41.805Z,58.80
2018-08-22T18:18:02.831Z,58.70
2018-08-22T18:23:23.715Z,58.50
2018-08-22T18:28:44.347Z,58.30
2018-08-22T18:34:05.212Z,58.00
2018-08-22T18:39:26.075Z,57.90
2018-08-22T18:44:46.956Z,57.80
2018-08-22T18:50:07.749Z,57.70
2018-08-22T18:55:31.441Z,57.80
2018-08-22T19:00:52.109Z,58.10
2018-08-22T19:06:14.065Z,58.30
2018-08-22T19:11:35.009Z,58.60
2018-08-22T19:16:55.760Z,58.60
2018-08-22T19:22:18.814Z,58.90
2018-08-22T19:27:39.358Z,59.30
2018-08-22T19:32:59.993Z,59.80
2018-08-22T19:38:23.482Z,59.70
2018-08-22T19:43:44.258Z,59.30
2018-08-22T19:49:04.961Z,59.10
2018-08-22T19:54:25.520Z,59.10
2018-08-22T19:59:46.274Z,59.00
2018-08-22T20:05:07.947Z,58.90
2018-08-22T20:10:29.010Z,58.70
2018-08-22T20:15:49.539Z,58.80
2018-08-22T20:21:13.590Z,58.70
2018-08-22T20:26:34.550Z,58.70
2018-08-22T20:31:57.169Z,58.90
2018-08-22T20:37:17.977Z,58.80
2018-08-22T20:42:38.675Z,58.70
2018-08-22T20:48:04.332Z,58.60
2018-08-22T20:53:24.963Z,58.60
2018-08-22T20:58:45.710Z,58.40
2018-08-22T21:04:06.327Z,58.40
2018-08-22T21:09:26.959Z,58.30
2018-08-22T21:14:47.670Z,58.30
2018-08-22T21:20:14.368Z,58.30
2018-08-22T21:25:35.011Z,58.30
2018-08-22T21:30:59.389Z,58.80
2018-08-22T21:36:20.143Z,58.10
2018-08-22T21:41:41.352Z,58.10
2018-08-22T21:47:06.665Z,58.00
2018-08-22T21:52:28.887Z,58.00
2018-08-22T21:57:49.623Z,57.90
2018-08-22T22:03:11.345Z,57.80
2018-08-22T22:08:32.011Z,57.80
2018-08-22T22:13:54.632Z,57.70
2018-08-22T22:19:15.541Z,57.60
2018-08-22T22:24:44.790Z,57.70
2018-08-22T22:30:07.017Z,57.40
2018-08-22T22:35:32.714Z,57.60
2018-08-22T22:40:53.283Z,57.40
2018-08-22T22:46:13.937Z,57.30
2018-08-22T22:51:34.672Z,57.20
2018-08-22T22:56:55.715Z,57.30
2018-08-22T23:02:16.281Z,57.10
2018-08-22T23:07:37.867Z,57.20
2018-08-22T23:12:58.464Z,57.80
2018-08-22T23:18:19.589Z,57.50
2018-08-22T23:23:40.292Z,57.60
2018-08-22T23:29:00.857Z,57.60
2018-08-22T23:34:21.445Z,57.50
2018-08-22T23:39:42.271Z,58.00
2018-08-22T23:45:04.698Z,57.60
2018-08-22T23:50:29.084Z,57.60
2018-08-22T23:55:50.141Z,57.60
